Main page
METAR-TAF:

METAR-TAF

Airports :

Khorramabad Airport

Khorramabad, Iran

latitude: 33-26-11N, longitude: 048-17-09E, elevation: 1155 m

Current weather observation

The report was made 13 hours and 36 minutes ago, at 13:30 UTC
Wind 4 kt from the Southwest
Temperature 8°C
Humidity 71%
Pressure 1019 hPa
Visibility 10 km or more
Few clouds at a height of 4500 ft
Scattered clouds at a height of 10000 ft
Overcast at a height of 19000 ft

METAR: OICK 101330Z 23004KT 9999 FEW045 SCT100 OVC190 08/03 Q1019

Time: 06:36 (03:06 UTC)


TAF: missing

Weather observations and forecasts of more than 4000 airports (METAR and TAF reports).

The available stations are represented by yellow and red dots on the map.

Hover mouse over dot to see the name of the station.

Then click to see weather observations and forecasts.

To change the map : click on the green buttons with a black cross to zoom in, on the green button with a dash to zoom out, or on the green arrows for adjacent maps.


METAR-TAF: